Time;durP1;ratioP1;P1;durP2;ratioP2;P2;SDS_P1;SDS_P2;PMS_P1;PMS_P2;Temp;Humidity;BMP_temperature;BMP_pressure;BME280_temperature;BME280_humidity;BME280_pressure;Samples;Min_cycle;Max_cycle;Signal;HPM_P1;HPM_P2
2023/04/13 00:02:03;;;;;;;;;;;;;;;;;;5010956;28;19967;-75
2023/04/13 00:04:30;;;;;;;;;;;;;;;;;;5004193;28;20012;-76
2023/04/13 00:06:57;;;;;;;;;;;;;;;;;;4995639;28;19920;-75
2023/04/13 00:09:23;;;;;;;;;;;;;;;;;;4996302;28;19913;-76
2023/04/13 00:11:48;;;;;;;;;;;;;;;;;;4995962;28;19919;-75
2023/04/13 00:14:13;;;;;;;;;;;;;;;;;;4996225;28;19909;-75
2023/04/13 00:16:39;;;;;;;;;;;;;;;;;;4995705;28;19945;-75
2023/04/13 00:19:04;;;;;;;;;;;;;;;;;;4996021;28;19910;-75
2023/04/13 00:21:29;;;;;;;;;;;;;;;;;;4995812;28;19928;-75
2023/04/13 00:23:55;;;;;;;;;;;;;;;;;;4995411;28;19910;-76
2023/04/13 00:26:21;;;;;;;;;;;;;;;;;;4996280;28;20438;-75
2023/04/13 00:28:46;;;;;;;;;;;;;;;;;;4995401;28;19916;-75
2023/04/13 00:31:12;;;;;;;;;;;;;;;;;;4996115;28;19913;-75
2023/04/13 00:33:37;;;;;;;;;;;;;;;;;;4994123;28;19968;-75
2023/04/13 00:36:02;;;;;;;;;;;;;;;;;;4996723;28;19980;-75
2023/04/13 00:38:28;;;;;;;;;;;;;;;;;;4996082;28;19916;-76
2023/04/13 00:40:54;;;;;;;;;;;;;;;;;;4994509;28;19917;-76
2023/04/13 00:43:19;;;;;;;;;;;;;;;;;;4994364;28;20048;-76
2023/04/13 00:45:45;;;;;;;;;;;;;;;;;;4997812;28;19968;-76
2023/04/13 00:48:10;;;;;;;;;;;;;;;;;;4999006;28;19910;-76
2023/04/13 00:50:36;;;;;;;;;;;;;;;;;;4998978;28;19979;-76
2023/04/13 00:53:01;;;;;;;;;;;;;;;;;;5000640;28;19909;-76
2023/04/13 00:55:26;;;;;;;;;;;;;;;;;;5005111;28;19913;-76
2023/04/13 00:57:51;;;;;;;;;;;;;;;;;;5001714;28;20373;-74
2023/04/13 01:00:17;;;;;;;;;;;;;;;;;;5004765;28;19924;-74
2023/04/13 01:02:43;;;;;;;;;;;;;;;;;;5027488;28;19914;-74
2023/04/13 01:05:15;;;;;;;;;;;;;;;;;;4998259;28;19924;-75
2023/04/13 01:07:41;;;;;;;;;;;;;;;;;;4995772;28;20336;-74
2023/04/13 01:10:06;;;;;;;;;;;;;;;;;;5026187;28;19909;-74
2023/04/13 01:12:32;;;;;;;;;;;;;;;;;;4996036;28;20004;-74
2023/04/13 01:14:58;;;;;;;;;;;;;;;;;;5020701;28;19955;-75
2023/04/13 01:17:24;;;;;;;;;;;;;;;;;;4996243;28;20358;-75
2023/04/13 01:19:52;;;;;;;;;;;;;;;;;;5026149;28;19917;-75
2023/04/13 01:22:19;;;;;;;;;;;;;;;;;;4996441;28;19913;-75
2023/04/13 01:24:44;;;;;;;;;;;;;;;;;;5026028;28;20449;-75
2023/04/13 01:27:10;;;;;;;;;;;;;;;;;;4996889;28;20044;-75
2023/04/13 01:29:36;;;;;;;;;;;;;;;;;;5025921;28;19916;-75
2023/04/13 01:32:02;;;;;;;;;;;;;;;;;;4997009;28;19917;-75
2023/04/13 01:34:28;;;;;;;;;;;;;;;;;;5025730;28;19929;-75
2023/04/13 01:36:53;;;;;;;;;;;;;;;;;;4980513;28;19913;-75
2023/04/13 01:39:19;;;;;;;;;;;;;;;;;;5026658;28;19913;-75
2023/04/13 01:41:45;;;;;;;;;;;;;;;;;;4977650;28;19968;-75
2023/04/13 01:44:12;;;;;;;;;;;;;;;;;;4996847;28;19909;-74
2023/04/13 01:46:38;;;;;;;;;;;;;;;;;;4994988;28;19914;-75
2023/04/13 01:49:09;;;;;;;;;;;;;;;;;;4999181;28;19915;-75
2023/04/13 01:51:53;;;;;;;;;;;;;;;;;;4998073;28;20325;-75
2023/04/13 01:54:22;;;;;;;;;;;;;;;;;;5026970;28;19913;-75
2023/04/13 01:56:47;;;;;;;;;;;;;;;;;;4999366;28;20348;-75
2023/04/13 01:59:12;;;;;;;;;;;;;;;;;;5026722;28;20301;-75
2023/04/13 02:01:37;;;;;;;;;;;;;;;;;;5026558;28;20304;-76
2023/04/13 02:04:04;;;;;;;;;;;;;;;;;;5027919;28;19913;-75
2023/04/13 02:06:30;;;;;;;;;;;;;;;;;;4999686;28;19929;-75
2023/04/13 02:08:56;;;;;;;;;;;;;;;;;;5028271;28;19973;-75
2023/04/13 02:11:21;;;;;;;;;;;;;;;;;;4999739;28;19997;-75
2023/04/13 02:13:47;;;;;;;;;;;;;;;;;;5003466;28;19948;-75
2023/04/13 02:16:16;;;;;;;;;;;;;;;;;;4998910;28;20324;-75
2023/04/13 02:18:41;;;;;;;;;;;;;;;;;;5028838;28;19914;-76
2023/04/13 02:21:08;;;;;;;;;;;;;;;;;;5001212;28;19921;-75
2023/04/13 02:23:34;;;;;;;;;;;;;;;;;;5030565;28;19914;-76
2023/04/13 02:25:59;;;;;;;;;;;;;;;;;;5001365;28;19914;-76
2023/04/13 02:28:26;;;;;;;;;;;;;;;;;;5030620;28;20323;-75
2023/04/13 02:30:51;;;;;;;;;;;;;;;;;;5002977;28;19916;-76
2023/04/13 02:33:18;;;;;;;;;;;;;;;;;;5030817;28;19914;-75
2023/04/13 02:35:44;;;;;;;;;;;;;;;;;;5001429;28;19922;-76
2023/04/13 02:38:11;;;;;;;;;;;;;;;;;;5031452;28;20008;-75
2023/04/13 02:40:37;;;;;;;;;;;;;;;;;;5025441;28;20384;-76
2023/04/13 02:43:04;;;;;;;;;;;;;;;;;;4992846;28;19913;-76
2023/04/13 02:45:30;;;;;;;;;;;;;;;;;;4993276;28;19913;-76
2023/04/13 02:47:56;;;;;;;;;;;;;;;;;;4992797;28;19921;-76
2023/04/13 02:50:21;;;;;;;;;;;;;;;;;;4992802;28;19979;-76
2023/04/13 02:52:57;;;;;;;;;;;;;;;;;;4992645;28;20453;-76
2023/04/13 02:55:23;;;;;;;;;;;;;;;;;;4993571;28;19920;-76
2023/04/13 02:57:56;;;;;;;;;;;;;;;;;;4993856;28;19910;-76
2023/04/13 03:00:24;;;;;;;;;;;;;;;;;;4978592;28;19924;-75
2023/04/13 03:02:54;;;;;;;;;;;;;;;;;;4993734;28;20381;-75
2023/04/13 03:05:21;;;;;;;;;;;;;;;;;;4994635;28;19920;-75
2023/04/13 03:07:47;;;;;;;;;;;;;;;;;;4993913;28;20288;-75
2023/04/13 03:10:13;;;;;;;;;;;;;;;;;;4996135;28;20396;-75
2023/04/13 03:12:40;;;;;;;;;;;;;;;;;;4992875;28;19921;-75
2023/04/13 03:15:10;;;;;;;;;;;;;;;;;;4995841;28;20385;-75
2023/04/13 03:17:40;;;;;;;;;;;;;;;;;;4998020;28;19956;-75
2023/04/13 03:20:15;;;;;;;;;;;;;;;;;;5029908;28;19918;-76
2023/04/13 03:22:48;;;;;;;;;;;;;;;;;;5028266;28;19914;-75
2023/04/13 03:25:13;;;;;;;;;;;;;;;;;;4995813;28;19996;-75
2023/04/13 03:27:39;;;;;;;;;;;;;;;;;;4996661;28;20021;-75
2023/04/13 03:30:05;;;;;;;;;;;;;;;;;;4995597;28;19913;-74
2023/04/13 03:32:37;;;;;;;;;;;;;;;;;;4980417;28;19909;-75
2023/04/13 03:35:02;;;;;;;;;;;;;;;;;;4995499;28;20377;-74
2023/04/13 03:37:31;;;;;;;;;;;;;;;;;;4995131;28;19909;-75
2023/04/13 03:40:02;;;;;;;;;;;;;;;;;;5028095;28;19918;-75
2023/04/13 03:42:33;;;;;;;;;;;;;;;;;;5010808;28;20008;-75
2023/04/13 03:44:59;;;;;;;;;;;;;;;;;;4996460;28;19999;-75
2023/04/13 03:47:25;;;;;;;;;;;;;;;;;;4980667;28;19917;-76
2023/04/13 03:49:51;;;;;;;;;;;;;;;;;;4979836;28;20300;-75
2023/04/13 03:52:16;;;;;;;;;;;;;;;;;;4996949;28;19909;-76
2023/04/13 03:54:48;;;;;;;;;;;;;;;;;;4984085;28;19957;-76
2023/04/13 03:57:14;;;;;;;;;;;;;;;;;;5013596;28;19949;-76
2023/04/13 03:59:40;;;;;;;;;;;;;;;;;;4996675;28;19901;-76
2023/04/13 04:02:08;;;;;;;;;;;;;;;;;;4997591;28;20381;-74
2023/04/13 04:04:37;;;;;;;;;;;;;;;;;;4996210;28;20012;-76
2023/04/13 04:07:03;;;;;;;;;;;;;;;;;;5026427;28;19964;-77
2023/04/13 04:09:28;;;;;;;;;;;;;;;;;;5026819;28;19909;-76
2023/04/13 04:11:55;;;;;;;;;;;;;;;;;;5027623;28;19918;-75
2023/04/13 04:14:31;;;;;;;;;;;;;;;;;;4983526;28;19913;-75
2023/04/13 04:17:03;;;;;;;;;;;;;;;;;;5011761;28;19913;-75
2023/04/13 04:19:28;;;;;;;;;;;;;;;;;;5015887;28;19925;-74
2023/04/13 04:21:56;;;;;;;;;;;;;;;;;;4996779;28;20016;-75
2023/04/13 04:24:23;;;;;;;;;;;;;;;;;;4996117;28;19929;-74
2023/04/13 04:26:53;;;;;;;;;;;;;;;;;;5024843;28;19997;-74
2023/04/13 04:29:33;;;;;;;;;;;;;;;;;;5002923;28;19980;-75
2023/04/13 04:32:00;;;;;;;;;;;;;;;;;;5003598;28;19913;-72
2023/04/13 04:34:27;;;;;;;;;;;;;;;;;;5023332;28;19928;-73
2023/04/13 04:36:52;;;;;;;;;;;;;;;;;;5005702;28;19914;-75
2023/04/13 04:39:25;;;;;;;;;;;;;;;;;;5011077;28;19913;-75
2023/04/13 04:42:02;;;;;;;;;;;;;;;;;;5027053;28;20016;-73
2023/04/13 04:44:31;;;;;;;;;;;;;;;;;;5015402;28;20242;-75
2023/04/13 04:47:03;;;;;;;;;;;;;;;;;;4995909;28;19993;-74
2023/04/13 04:49:30;;;;;;;;;;;;;;;;;;4994658;28;19917;-76
2023/04/13 04:51:56;;;;;;;;;;;;;;;;;;4981589;28;19910;-76
2023/04/13 04:54:22;;;;;;;;;;;;;;;;;;4996005;28;19984;-76
2023/04/13 04:56:48;;;;;;;;;;;;;;;;;;4998190;28;20373;-78
2023/04/13 04:59:16;;;;;;;;;;;;;;;;;;5026071;28;19968;-74
2023/04/13 05:01:54;;;;;;;;;;;;;;;;;;4997229;28;19923;-80
2023/04/13 05:04:20;;;;;;;;;;;;;;;;;;4998194;28;19924;-81
2023/04/13 05:06:47;;;;;;;;;;;;;;;;;;5022317;28;19909;-82
2023/04/13 05:09:17;;;;;;;;;;;;;;;;;;4998972;28;20440;-81
2023/04/13 05:11:46;;;;;;;;;;;;;;;;;;5027113;28;19914;-81
2023/04/13 05:14:13;;;;;;;;;;;;;;;;;;4998342;28;19910;-82
2023/04/13 05:16:38;;;;;;;;;;;;;;;;;;5027095;28;20047;-82
2023/04/13 05:19:12;;;;;;;;;;;;;;;;;;4982525;28;20005;-82
2023/04/13 05:21:45;;;;;;;;;;;;;;;;;;4998144;28;19921;-81
2023/04/13 05:24:11;;;;;;;;;;;;;;;;;;4999651;28;20029;-81
2023/04/13 05:26:37;;;;;;;;;;;;;;;;;;5014002;28;19909;-82
2023/04/13 05:29:05;;;;;;;;;;;;;;;;;;5001509;28;20016;-82
2023/04/13 05:31:34;;;;;;;;;;;;;;;;;;5032007;28;19916;-83
2023/04/13 05:34:00;;;;;;;;;;;;;;;;;;5023453;28;19926;-83
2023/04/13 05:36:27;;;;;;;;;;;;;;;;;;5036642;28;19909;-82
2023/04/13 05:38:53;;;;;;;;;;;;;;;;;;5026999;28;20000;-82
2023/04/13 05:41:22;;;;;;;;;;;;;;;;;;4993962;28;20002;-83
2023/04/13 05:43:48;;;;;;;;;;;;;;;;;;4994295;28;20468;-83
2023/04/13 05:46:14;;;;;;;;;;;;;;;;;;4993828;28;20305;-83
2023/04/13 05:48:42;;;;;;;;;;;;;;;;;;4993091;28;19914;-82
2023/04/13 05:51:08;;;;;;;;;;;;;;;;;;5017371;28;19910;-81
2023/04/13 05:53:34;;;;;;;;;;;;;;;;;;5021410;28;19913;-80
2023/04/13 05:55:59;;;;;;;;;;;;;;;;;;5017769;28;19921;-82
2023/04/13 05:58:25;;;;;;;;;;;;;;;;;;5021226;28;19957;-80
2023/04/13 06:00:59;;;;;;;;;;;;;;;;;;5015608;28;20405;-81
2023/04/13 06:03:29;;;;;;;;;;;;;;;;;;4990903;28;20024;-81
2023/04/13 06:05:55;;;;;;;;;;;;;;;;;;4993136;28;19964;-81
2023/04/13 06:08:21;;;;;;;;;;;;;;;;;;4994075;28;19913;-82
2023/04/13 06:10:46;;;;;;;;;;;;;;;;;;4993498;28;19964;-80
2023/04/13 06:13:12;;;;;;;;;;;;;;;;;;4994914;28;20000;-82
2023/04/13 06:15:37;;;;;;;;;;;;;;;;;;4976640;28;19916;-81
2023/04/13 06:18:03;;;;;;;;;;;;;;;;;;4992485;28;19960;-80
2023/04/13 06:20:28;;;;;;;;;;;;;;;;;;4992465;28;19913;-82
2023/04/13 06:22:55;;;;;;;;;;;;;;;;;;4976683;28;19914;-82
2023/04/13 06:25:21;;;;;;;;;;;;;;;;;;4976528;28;19910;-82
2023/04/13 06:27:48;;;;;;;;;;;;;;;;;;4992931;28;19914;-82
2023/04/13 06:30:13;;;;;;;;;;;;;;;;;;4992977;28;19910;-82
2023/04/13 06:32:39;;;;;;;;;;;;;;;;;;4992367;28;19918;-82
2023/04/13 06:35:04;;;;;;;;;;;;;;;;;;5019050;28;19972;-81
2023/04/13 06:37:37;;;;;;;;;;;;;;;;;;5025443;28;19972;-82
2023/04/13 06:40:24;;;;;;;;;;;;;;;;;;5008450;28;20004;-82
2023/04/13 06:42:59;;;;;;;;;;;;;;;;;;4991801;28;19925;-82
2023/04/13 06:45:32;;;;;;;;;;;;;;;;;;4992364;28;19921;-81
2023/04/13 06:48:01;;;;;;;;;;;;;;;;;;4991877;28;20263;-81
2023/04/13 06:50:29;;;;;;;;;;;;;;;;;;4976226;28;19961;-82
2023/04/13 06:52:58;;;;;;;;;;;;;;;;;;4993979;28;19920;-80
2023/04/13 06:55:23;;;;;;;;;;;;;;;;;;4994331;28;20392;-81
2023/04/13 06:57:49;;;;;;;;;;;;;;;;;;4977331;28;19924;-81
2023/04/13 07:00:14;;;;;;;;;;;;;;;;;;4994623;28;20327;-82
2023/04/13 07:02:40;;;;;;;;;;;;;;;;;;4995156;28;19924;-81
2023/04/13 07:05:06;;;;;;;;;;;;;;;;;;4995714;28;19936;-82
2023/04/13 07:07:31;;;;;;;;;;;;;;;;;;4993319;28;19921;-83
2023/04/13 07:09:57;;;;;;;;;;;;;;;;;;4993002;28;20365;-81
2023/04/13 07:12:22;;;;;;;;;;;;;;;;;;4993047;28;19914;-81
2023/04/13 07:14:48;;;;;;;;;;;;;;;;;;4993518;28;19909;-82
2023/04/13 07:17:17;;;;;;;;;;;;;;;;;;4976975;28;20470;-80
2023/04/13 07:19:42;;;;;;;;;;;;;;;;;;4994903;28;19957;-82
2023/04/13 07:22:07;;;;;;;;;;;;;;;;;;4993262;28;19917;-82
2023/04/13 07:24:33;;;;;;;;;;;;;;;;;;4992727;28;19910;-82
2023/04/13 07:27:00;;;;;;;;;;;;;;;;;;4991499;28;19917;-81
2023/04/13 07:29:26;;;;;;;;;;;;;;;;;;4991052;28;19965;-81
2023/04/13 07:31:55;;;;;;;;;;;;;;;;;;4991247;28;20396;-83
2023/04/13 07:34:25;;;;;;;;;;;;;;;;;;4991539;28;19922;-83
2023/04/13 07:36:55;;;;;;;;;;;;;;;;;;4976700;28;20004;-82
2023/04/13 07:39:22;;;;;;;;;;;;;;;;;;4993497;28;19925;-81
2023/04/13 07:41:50;;;;;;;;;;;;;;;;;;4991942;28;19922;-82
2023/04/13 07:44:21;;;;;;;;;;;;;;;;;;4992157;28;19916;-81
2023/04/13 07:46:47;;;;;;;;;;;;;;;;;;4992809;28;19915;-82
2023/04/13 07:49:12;;;;;;;;;;;;;;;;;;5023081;28;19910;-82
2023/04/13 07:51:39;;;;;;;;;;;;;;;;;;5007822;28;19918;-82
2023/04/13 07:54:05;;;;;;;;;;;;;;;;;;5021972;28;20257;-83
2023/04/13 07:56:32;;;;;;;;;;;;;;;;;;5025046;28;19914;-82
2023/04/13 07:58:59;;;;;;;;;;;;;;;;;;4975737;28;19917;-81
2023/04/13 08:01:25;;;;;;;;;;;;;;;;;;4994795;28;19929;-82
2023/04/13 08:03:50;;;;;;;;;;;;;;;;;;4996666;28;20420;-83
2023/04/13 08:06:21;;;;;;;;;;;;;;;;;;4979810;28;19925;-82
2023/04/13 08:08:46;;;;;;;;;;;;;;;;;;4995708;28;20365;-82
2023/04/13 08:11:11;;;;;;;;;;;;;;;;;;4996039;28;19920;-82
2023/04/13 08:13:38;;;;;;;;;;;;;;;;;;5023716;28;20104;-82
2023/04/13 08:16:03;;;;;;;;;;;;;;;;;;5023793;28;20352;-82
2023/04/13 08:18:31;;;;;;;;;;;;;;;;;;5027102;28;19969;-82
2023/04/13 08:20:57;;;;;;;;;;;;;;;;;;5027076;28;19917;-82
2023/04/13 08:23:24;;;;;;;;;;;;;;;;;;5027553;28;19916;-82
2023/04/13 08:25:49;;;;;;;;;;;;;;;;;;5027904;28;19917;-83
2023/04/13 08:28:15;;;;;;;;;;;;;;;;;;4993312;28;19920;-82
2023/04/13 08:30:41;;;;;;;;;;;;;;;;;;4983385;28;19920;-83
2023/04/13 08:33:06;;;;;;;;;;;;;;;;;;4996867;28;19909;-82
2023/04/13 08:35:32;;;;;;;;;;;;;;;;;;5002000;28;19928;-81
2023/04/13 08:37:59;;;;;;;;;;;;;;;;;;5034399;28;19920;-83
2023/04/13 08:40:24;;;;;;;;;;;;;;;;;;5027655;28;19917;-81
2023/04/13 08:42:52;;;;;;;;;;;;;;;;;;4996141;28;19922;-82
2023/04/13 08:45:17;;;;;;;;;;;;;;;;;;4995751;28;20325;-84
2023/04/13 08:47:45;;;;;;;;;;;;;;;;;;4993783;28;19917;-82
2023/04/13 08:50:11;;;;;;;;;;;;;;;;;;4995567;28;19914;-81
2023/04/13 08:52:40;;;;;;;;;;;;;;;;;;5010979;28;20439;-83
2023/04/13 08:55:05;;;;;;;;;;;;;;;;;;4996580;28;19913;-83
2023/04/13 08:57:32;;;;;;;;;;;;;;;;;;4995273;28;19913;-82
2023/04/13 08:59:57;;;;;;;;;;;;;;;;;;4994175;28;19926;-82
2023/04/13 09:02:24;;;;;;;;;;;;;;;;;;4996163;28;20445;-82
2023/04/13 09:04:54;;;;;;;;;;;;;;;;;;4994319;28;19913;-83
2023/04/13 09:07:20;;;;;;;;;;;;;;;;;;4994882;28;19920;-82
2023/04/13 09:09:46;;;;;;;;;;;;;;;;;;4996807;28;20296;-82
2023/04/13 09:12:12;;;;;;;;;;;;;;;;;;4995836;28;19911;-83
2023/04/13 09:14:37;;;;;;;;;;;;;;;;;;4996369;28;19921;-82
2023/04/13 09:17:03;;;;;;;;;;;;;;;;;;4994771;28;19910;-82
2023/04/13 09:19:34;;;;;;;;;;;;;;;;;;4980114;28;20014;-82
2023/04/13 09:22:03;;;;;;;;;;;;;;;;;;4994153;28;20301;-83
2023/04/13 09:24:29;;;;;;;;;;;;;;;;;;4995754;28;19967;-83
2023/04/13 09:26:55;;;;;;;;;;;;;;;;;;4995357;28;19913;-83
2023/04/13 09:29:23;;;;;;;;;;;;;;;;;;4993999;28;19959;-83
2023/04/13 09:31:49;;;;;;;;;;;;;;;;;;4993279;28;19937;-82
2023/04/13 09:34:14;;;;;;;;;;;;;;;;;;4996600;28;19922;-81
2023/04/13 09:36:40;;;;;;;;;;;;;;;;;;4996441;28;19924;-83
2023/04/13 09:39:05;;;;;;;;;;;;;;;;;;4994782;28;19921;-84
2023/04/13 09:41:31;;;;;;;;;;;;;;;;;;4994637;28;20023;-83
2023/04/13 09:43:56;;;;;;;;;;;;;;;;;;4994934;28;19910;-81
2023/04/13 09:46:22;;;;;;;;;;;;;;;;;;4995124;28;19914;-83
2023/04/13 09:48:47;;;;;;;;;;;;;;;;;;4992746;28;19952;-83
2023/04/13 09:51:12;;;;;;;;;;;;;;;;;;4992271;28;19913;-82
2023/04/13 09:53:37;;;;;;;;;;;;;;;;;;4991491;28;19910;-82
2023/04/13 09:56:03;;;;;;;;;;;;;;;;;;4994546;28;19914;-82
2023/04/13 09:58:28;;;;;;;;;;;;;;;;;;4994612;28;19955;-82
2023/04/13 10:00:54;;;;;;;;;;;;;;;;;;4994975;28;20399;-81
2023/04/13 10:03:21;;;;;;;;;;;;;;;;;;4993192;28;19918;-82
2023/04/13 10:05:47;;;;;;;;;;;;;;;;;;4993230;28;19914;-83
2023/04/13 10:08:12;;;;;;;;;;;;;;;;;;4994261;28;19909;-83
2023/04/13 10:10:40;;;;;;;;;;;;;;;;;;4993491;28;19913;-82
2023/04/13 10:13:06;;;;;;;;;;;;;;;;;;4993967;28;19961;-82
2023/04/13 10:15:31;;;;;;;;;;;;;;;;;;4994098;28;19956;-82
2023/04/13 10:17:56;;;;;;;;;;;;;;;;;;4993922;28;20335;-82
2023/04/13 10:20:22;;;;;;;;;;;;;;;;;;4992626;28;19917;-82
2023/04/13 10:22:47;;;;;;;;;;;;;;;;;;4994181;28;19909;-82
2023/04/13 10:25:13;;;;;;;;;;;;;;;;;;4977813;28;20012;-84
2023/04/13 10:27:39;;;;;;;;;;;;;;;;;;4990890;28;20328;-83
2023/04/13 10:30:04;;;;;;;;;;;;;;;;;;4993334;28;19917;-82
2023/04/13 10:32:30;;;;;;;;;;;;;;;;;;4993490;28;19973;-82
2023/04/13 10:34:56;;;;;;;;;;;;;;;;;;4994223;28;20301;-83
2023/04/13 10:37:21;;;;;;;;;;;;;;;;;;4995090;28;19909;-82
2023/04/13 10:39:47;;;;;;;;;;;;;;;;;;4993971;28;19937;-81
2023/04/13 10:42:12;;;;;;;;;;;;;;;;;;4993986;28;20292;-83
2023/04/13 10:44:38;;;;;;;;;;;;;;;;;;4996066;28;19919;-83
2023/04/13 10:47:04;;;;;;;;;;;;;;;;;;4995298;28;20296;-84
2023/04/13 10:49:30;;;;;;;;;;;;;;;;;;4995681;28;20032;-82
2023/04/13 10:51:55;;;;;;;;;;;;;;;;;;5000893;28;20008;-82
2023/04/13 10:54:20;;;;;;;;;;;;;;;;;;4996967;28;19917;-82
2023/04/13 10:56:46;;;;;;;;;;;;;;;;;;5000201;28;19956;-82
2023/04/13 10:59:11;;;;;;;;;;;;;;;;;;5028656;28;20005;-82
2023/04/13 11:01:37;;;;;;;;;;;;;;;;;;4999926;28;19928;-83
2023/04/13 11:04:03;;;;;;;;;;;;;;;;;;5001204;28;19996;-83
2023/04/13 11:06:28;;;;;;;;;;;;;;;;;;4999159;28;20004;-82
2023/04/13 11:08:55;;;;;;;;;;;;;;;;;;5002727;28;19913;-81
2023/04/13 11:11:21;;;;;;;;;;;;;;;;;;4999216;28;19910;-83
2023/04/13 11:13:46;;;;;;;;;;;;;;;;;;5001428;28;20309;-82
2023/04/13 11:16:12;;;;;;;;;;;;;;;;;;4999772;28;19910;-82
2023/04/13 11:18:37;;;;;;;;;;;;;;;;;;5003286;28;19913;-82
2023/04/13 11:21:03;;;;;;;;;;;;;;;;;;5002230;28;19967;-83
2023/04/13 11:23:33;;;;;;;;;;;;;;;;;;5006694;28;19920;-82
2023/04/13 11:25:59;;;;;;;;;;;;;;;;;;4999029;28;19940;-83
2023/04/13 11:28:25;;;;;;;;;;;;;;;;;;5007151;28;20348;-83
2023/04/13 11:30:51;;;;;;;;;;;;;;;;;;5003714;28;19914;-83
2023/04/13 11:33:16;;;;;;;;;;;;;;;;;;5007372;28;20356;-83
2023/04/13 11:35:42;;;;;;;;;;;;;;;;;;5006248;28;20321;-83
2023/04/13 11:38:07;;;;;;;;;;;;;;;;;;5004876;28;19964;-82
2023/04/13 11:40:32;;;;;;;;;;;;;;;;;;5030213;28;19914;-82
2023/04/13 11:42:58;;;;;;;;;;;;;;;;;;5003941;28;19979;-82
2023/04/13 11:45:24;;;;;;;;;;;;;;;;;;5008717;28;19977;-83
2023/04/13 11:47:49;;;;;;;;;;;;;;;;;;5001741;28;19921;-83
2023/04/13 11:50:16;;;;;;;;;;;;;;;;;;5002595;28;19909;-82
2023/04/13 11:52:41;;;;;;;;;;;;;;;;;;5003984;28;20296;-82
2023/04/13 11:55:06;;;;;;;;;;;;;;;;;;5003124;28;19909;-82
2023/04/13 11:57:32;;;;;;;;;;;;;;;;;;5031776;28;20012;-83
2023/04/13 11:59:57;;;;;;;;;;;;;;;;;;5003396;28;19916;-82
2023/04/13 12:02:23;;;;;;;;;;;;;;;;;;5008227;28;19928;-81
2023/04/13 12:04:48;;;;;;;;;;;;;;;;;;5003552;28;20016;-82
2023/04/13 12:07:13;;;;;;;;;;;;;;;;;;5008024;28;19913;-82
2023/04/13 12:09:39;;;;;;;;;;;;;;;;;;5004630;28;19914;-83
2023/04/13 12:12:04;;;;;;;;;;;;;;;;;;5017400;28;19913;-83
2023/04/13 12:14:30;;;;;;;;;;;;;;;;;;5027928;28;19910;-81
2023/04/13 12:16:55;;;;;;;;;;;;;;;;;;5023120;28;20423;-82
2023/04/13 12:19:21;;;;;;;;;;;;;;;;;;4996338;28;20395;-83
2023/04/13 12:21:46;;;;;;;;;;;;;;;;;;5007645;28;19917;-83
2023/04/13 12:24:12;;;;;;;;;;;;;;;;;;5008454;28;20377;-82
2023/04/13 12:26:39;;;;;;;;;;;;;;;;;;5008068;28;19961;-82
2023/04/13 12:29:05;;;;;;;;;;;;;;;;;;4996567;28;19909;-84
2023/04/13 12:31:30;;;;;;;;;;;;;;;;;;5007906;28;19925;-84
2023/04/13 12:33:55;;;;;;;;;;;;;;;;;;4995915;28;19925;-83
2023/04/13 12:36:21;;;;;;;;;;;;;;;;;;4996208;28;20340;-82
2023/04/13 12:38:46;;;;;;;;;;;;;;;;;;4995864;28;19956;-83
2023/04/13 12:41:11;;;;;;;;;;;;;;;;;;4997002;28;19964;-83
2023/04/13 12:43:37;;;;;;;;;;;;;;;;;;4994978;28;19910;-83
2023/04/13 12:46:02;;;;;;;;;;;;;;;;;;4995016;28;19921;-82
2023/04/13 12:48:29;;;;;;;;;;;;;;;;;;4994528;28;19916;-82
2023/04/13 12:50:55;;;;;;;;;;;;;;;;;;4995558;28;19921;-83
2023/04/13 12:53:20;;;;;;;;;;;;;;;;;;4996068;28;19913;-82
2023/04/13 12:55:45;;;;;;;;;;;;;;;;;;4995806;28;19989;-83
2023/04/13 12:58:11;;;;;;;;;;;;;;;;;;4996543;28;19910;-81
2023/04/13 13:00:36;;;;;;;;;;;;;;;;;;4996675;28;19972;-84
2023/04/13 13:03:03;;;;;;;;;;;;;;;;;;4979344;28;19914;-83
2023/04/13 13:05:29;;;;;;;;;;;;;;;;;;4996645;28;20004;-82
2023/04/13 13:07:54;;;;;;;;;;;;;;;;;;4994300;28;20411;-83
2023/04/13 13:10:19;;;;;;;;;;;;;;;;;;4994057;28;19925;-82
2023/04/13 13:12:45;;;;;;;;;;;;;;;;;;4994760;28;19917;-83
2023/04/13 13:15:13;;;;;;;;;;;;;;;;;;4995838;28;19917;-83
2023/04/13 13:17:39;;;;;;;;;;;;;;;;;;4995911;28;19909;-82
2023/04/13 13:20:06;;;;;;;;;;;;;;;;;;4996108;28;19914;-83
2023/04/13 13:22:31;;;;;;;;;;;;;;;;;;4995264;28;20348;-83
2023/04/13 13:24:57;;;;;;;;;;;;;;;;;;5021750;28;19914;-82
2023/04/13 13:27:22;;;;;;;;;;;;;;;;;;4994632;28;19910;-82
2023/04/13 13:29:47;;;;;;;;;;;;;;;;;;5024671;28;19914;-82
2023/04/13 13:32:13;;;;;;;;;;;;;;;;;;4999026;28;19931;-82
2023/04/13 13:35:04;;;;;;;;;;;;;;;;;;4997531;28;19928;-82
2023/04/13 13:37:29;;;;;;;;;;;;;;;;;;4998884;28;19917;-83
2023/04/13 13:39:54;;;;;;;;;;;;;;;;;;5026134;28;19945;-83
2023/04/13 13:42:20;;;;;;;;;;;;;;;;;;4993766;28;20416;-84
2023/04/13 13:44:45;;;;;;;;;;;;;;;;;;4976802;28;20369;-83
2023/04/13 13:47:11;;;;;;;;;;;;;;;;;;4993936;28;19921;-82
2023/04/13 13:49:39;;;;;;;;;;;;;;;;;;4992823;28;19913;-83
2023/04/13 13:52:12;;;;;;;;;;;;;;;;;;4977340;28;20610;-83
2023/04/13 13:54:48;;;;;;;;;;;;;;;;;;4978111;28;20377;-83
2023/04/13 13:57:14;;;;;;;;;;;;;;;;;;4994276;28;19921;-82
2023/04/13 13:59:39;;;;;;;;;;;;;;;;;;4994108;28;19939;-83
2023/04/13 14:02:04;;;;;;;;;;;;;;;;;;4993125;28;19921;-83
2023/04/13 14:04:30;;;;;;;;;;;;;;;;;;4993335;28;20424;-82
2023/04/13 14:06:56;;;;;;;;;;;;;;;;;;4993606;28;19914;-83
2023/04/13 14:09:21;;;;;;;;;;;;;;;;;;4993564;28;19930;-83
2023/04/13 14:11:46;;;;;;;;;;;;;;;;;;4993467;28;20353;-82
2023/04/13 14:14:12;;;;;;;;;;;;;;;;;;4993874;28;19910;-83
2023/04/13 14:16:37;;;;;;;;;;;;;;;;;;4993715;28;19913;-83
2023/04/13 14:19:02;;;;;;;;;;;;;;;;;;5024956;28;19910;-83
2023/04/13 14:21:28;;;;;;;;;;;;;;;;;;4991920;28;19965;-83
2023/04/13 14:23:54;;;;;;;;;;;;;;;;;;4993311;28;19914;-83
2023/04/13 14:26:19;;;;;;;;;;;;;;;;;;4994049;28;19968;-83
2023/04/13 14:28:45;;;;;;;;;;;;;;;;;;4992533;28;19909;-83
2023/04/13 14:31:10;;;;;;;;;;;;;;;;;;4993130;28;19920;-82
2023/04/13 14:33:35;;;;;;;;;;;;;;;;;;4992958;28;19913;-82
2023/04/13 14:36:01;;;;;;;;;;;;;;;;;;4993135;28;20000;-82
2023/04/13 14:38:27;;;;;;;;;;;;;;;;;;5025284;28;20003;-83
2023/04/13 14:40:53;;;;;;;;;;;;;;;;;;4994251;28;19917;-83
2023/04/13 14:43:18;;;;;;;;;;;;;;;;;;4993482;28;19915;-84
2023/04/13 14:45:43;;;;;;;;;;;;;;;;;;5005628;28;21053;-83
2023/04/13 14:48:08;;;;;;;;;;;;;;;;;;4992906;28;19949;-84
2023/04/13 14:50:34;;;;;;;;;;;;;;;;;;4991871;28;20443;-82
2023/04/13 14:53:02;;;;;;;;;;;;;;;;;;4992838;28;19917;-84
2023/04/13 14:55:27;;;;;;;;;;;;;;;;;;4991650;28;19921;-82
2023/04/13 14:57:54;;;;;;;;;;;;;;;;;;4990095;28;20397;-83
2023/04/13 15:00:37;;;;;;;;;;;;;;;;;;4992294;28;20458;-83
2023/04/13 15:03:02;;;;;;;;;;;;;;;;;;4991989;28;19924;-82
2023/04/13 15:05:27;;;;;;;;;;;;;;;;;;4992601;28;20000;-82
2023/04/13 15:07:54;;;;;;;;;;;;;;;;;;4993766;28;20301;-85
2023/04/13 15:10:20;;;;;;;;;;;;;;;;;;4994865;28;20438;-82
2023/04/13 15:12:46;;;;;;;;;;;;;;;;;;4994400;28;20008;-83
2023/04/13 15:15:12;;;;;;;;;;;;;;;;;;4993892;28;20010;-81
2023/04/13 15:17:37;;;;;;;;;;;;;;;;;;4993711;28;20344;-80
2023/04/13 15:20:06;;;;;;;;;;;;;;;;;;4998687;28;19956;-80
2023/04/13 15:22:34;;;;;;;;;;;;;;;;;;4991985;28;19929;-81
2023/04/13 15:24:59;;;;;;;;;;;;;;;;;;4991709;28;19913;-82
2023/04/13 15:27:25;;;;;;;;;;;;;;;;;;5023724;28;20012;-82
2023/04/13 15:29:51;;;;;;;;;;;;;;;;;;4999075;28;19999;-82
2023/04/13 15:32:16;;;;;;;;;;;;;;;;;;4993694;28;19914;-82
2023/04/13 15:34:41;;;;;;;;;;;;;;;;;;4994916;28;20400;-81
2023/04/13 15:37:07;;;;;;;;;;;;;;;;;;4997068;28;19913;-82
2023/04/13 15:39:32;;;;;;;;;;;;;;;;;;4994055;28;19910;-81
2023/04/13 15:41:59;;;;;;;;;;;;;;;;;;4989025;28;20444;-81
2023/04/13 15:44:24;;;;;;;;;;;;;;;;;;5019473;28;20372;-81
2023/04/13 15:46:50;;;;;;;;;;;;;;;;;;4992894;28;19914;-81
2023/04/13 15:49:15;;;;;;;;;;;;;;;;;;4996243;28;19909;-82
2023/04/13 15:51:40;;;;;;;;;;;;;;;;;;4994007;28;19920;-82
2023/04/13 15:54:06;;;;;;;;;;;;;;;;;;5024109;28;19915;-83
2023/04/13 15:56:31;;;;;;;;;;;;;;;;;;5024370;28;20387;-82
2023/04/13 15:58:57;;;;;;;;;;;;;;;;;;4992628;28;19910;-82
2023/04/13 16:01:22;;;;;;;;;;;;;;;;;;4992054;28;20036;-82
2023/04/13 16:03:47;;;;;;;;;;;;;;;;;;4997459;28;19913;-81
2023/04/13 16:06:13;;;;;;;;;;;;;;;;;;4994983;28;19935;-81
2023/04/13 16:08:38;;;;;;;;;;;;;;;;;;5023714;28;19960;-82
2023/04/13 16:11:03;;;;;;;;;;;;;;;;;;4992705;28;20352;-83
2023/04/13 16:13:29;;;;;;;;;;;;;;;;;;5024105;28;19979;-81
2023/04/13 16:15:54;;;;;;;;;;;;;;;;;;4994731;28;19920;-80
2023/04/13 16:18:20;;;;;;;;;;;;;;;;;;4999984;28;20008;-79
2023/04/13 16:20:46;;;;;;;;;;;;;;;;;;4996554;28;19917;-82
2023/04/13 16:23:13;;;;;;;;;;;;;;;;;;5002788;28;19916;-81
2023/04/13 16:25:38;;;;;;;;;;;;;;;;;;4983495;28;19914;-83
2023/04/13 16:28:03;;;;;;;;;;;;;;;;;;5029308;28;20000;-83
2023/04/13 16:30:29;;;;;;;;;;;;;;;;;;5004999;28;20415;-83
2023/04/13 16:32:54;;;;;;;;;;;;;;;;;;5008607;28;19913;-83
2023/04/13 16:35:20;;;;;;;;;;;;;;;;;;5001774;28;20020;-83
2023/04/13 16:37:45;;;;;;;;;;;;;;;;;;5004590;28;19909;-82
2023/04/13 16:40:10;;;;;;;;;;;;;;;;;;4996623;28;19952;-82
2023/04/13 16:42:36;;;;;;;;;;;;;;;;;;4995439;28;19921;-81